sensor_id;sensor_type;location;lat;lon;timestamp;pressure;altitude;pressure_sealevel;temperature;humidity
41947;BME280;27638;42.184;24.848;2022-12-05T00:01:57;101049.16;;;10.27;95.32
41947;BME280;27638;42.184;24.848;2022-12-05T00:04:23;101055.16;;;10.29;94.80
41947;BME280;27638;42.184;24.848;2022-12-05T00:06:48;101056.84;;;10.30;94.88
41947;BME280;27638;42.184;24.848;2022-12-05T00:09:13;101062.03;;;10.32;94.49
41947;BME280;27638;42.184;24.848;2022-12-05T00:11:40;101065.25;;;10.35;93.85
41947;BME280;27638;42.184;24.848;2022-12-05T00:14:06;101067.06;;;10.35;93.91
41947;BME280;27638;42.184;24.848;2022-12-05T00:16:34;101067.06;;;10.35;95.15
41947;BME280;27638;42.184;24.848;2022-12-05T00:18:59;101061.91;;;10.33;94.84
41947;BME280;27638;42.184;24.848;2022-12-05T00:21:26;101055.50;;;10.36;94.42
41947;BME280;27638;42.184;24.848;2022-12-05T00:23:51;101045.03;;;10.34;95.05
41947;BME280;27638;42.184;24.848;2022-12-05T00:26:18;101047.56;;;10.36;94.83
41947;BME280;27638;42.184;24.848;2022-12-05T00:28:44;101051.75;;;10.38;95.17
41947;BME280;27638;42.184;24.848;2022-12-05T00:31:10;101057.66;;;10.42;93.89
41947;BME280;27638;42.184;24.848;2022-12-05T00:33:36;101054.75;;;10.45;93.45
41947;BME280;27638;42.184;24.848;2022-12-05T00:36:03;101053.78;;;10.46;92.74
41947;BME280;27638;42.184;24.848;2022-12-05T00:38:28;101053.53;;;10.49;92.53
41947;BME280;27638;42.184;24.848;2022-12-05T00:40:53;101051.59;;;10.51;92.29
41947;BME280;27638;42.184;24.848;2022-12-05T00:43:19;101048.81;;;10.52;92.04
41947;BME280;27638;42.184;24.848;2022-12-05T00:45:44;101054.63;;;10.46;92.30
41947;BME280;27638;42.184;24.848;2022-12-05T00:48:09;101047.25;;;10.50;93.29
41947;BME280;27638;42.184;24.848;2022-12-05T00:50:35;101045.13;;;10.44;93.35
41947;BME280;27638;42.184;24.848;2022-12-05T00:53:00;101047.44;;;10.37;93.48
41947;BME280;27638;42.184;24.848;2022-12-05T00:55:25;101056.22;;;10.38;93.66
41947;BME280;27638;42.184;24.848;2022-12-05T00:57:51;101056.91;;;10.40;93.02
41947;BME280;27638;42.184;24.848;2022-12-05T01:00:16;101056.44;;;10.46;93.60
41947;BME280;27638;42.184;24.848;2022-12-05T01:02:42;101044.63;;;10.50;92.84
41947;BME280;27638;42.184;24.848;2022-12-05T01:05:07;101056.88;;;10.51;93.29
41947;BME280;27638;42.184;24.848;2022-12-05T01:07:32;101051.59;;;10.51;92.63
41947;BME280;27638;42.184;24.848;2022-12-05T01:09:58;101045.47;;;10.50;92.79
41947;BME280;27638;42.184;24.848;2022-12-05T01:12:23;101053.28;;;10.52;93.04
41947;BME280;27638;42.184;24.848;2022-12-05T01:14:48;101054.94;;;10.53;92.74
41947;BME280;27638;42.184;24.848;2022-12-05T01:17:14;101051.91;;;10.58;92.66
41947;BME280;27638;42.184;24.848;2022-12-05T01:19:39;101052.44;;;10.51;93.39
41947;BME280;27638;42.184;24.848;2022-12-05T01:22:04;101046.28;;;10.51;92.82
41947;BME280;27638;42.184;24.848;2022-12-05T01:24:30;101045.47;;;10.50;93.17
41947;BME280;27638;42.184;24.848;2022-12-05T01:26:55;101042.94;;;10.49;92.96
41947;BME280;27638;42.184;24.848;2022-12-05T01:29:22;101043.91;;;10.48;92.89
41947;BME280;27638;42.184;24.848;2022-12-05T01:31:48;101040.16;;;10.50;93.20
41947;BME280;27638;42.184;24.848;2022-12-05T01:34:14;101047.25;;;10.50;92.86
41947;BME280;27638;42.184;24.848;2022-12-05T01:36:39;101046.28;;;10.51;93.57
41947;BME280;27638;42.184;24.848;2022-12-05T01:39:05;101041.72;;;10.53;93.16
41947;BME280;27638;42.184;24.848;2022-12-05T01:41:32;101044.34;;;10.53;92.97
41947;BME280;27638;42.184;24.848;2022-12-05T01:43:59;101034.34;;;10.57;93.25
41947;BME280;27638;42.184;24.848;2022-12-05T01:46:26;101035.69;;;10.51;93.54
41947;BME280;27638;42.184;24.848;2022-12-05T01:48:52;101025.94;;;10.51;92.59
41947;BME280;27638;42.184;24.848;2022-12-05T01:51:19;101024.97;;;10.52;92.89
41947;BME280;27638;42.184;24.848;2022-12-05T01:53:45;101024.13;;;10.52;93.12
41947;BME280;27638;42.184;24.848;2022-12-05T01:56:10;101020.38;;;10.54;92.47
41947;BME280;27638;42.184;24.848;2022-12-05T01:58:36;101016.06;;;10.53;92.27
41947;BME280;27638;42.184;24.848;2022-12-05T02:01:03;101015.81;;;10.57;93.05
41947;BME280;27638;42.184;24.848;2022-12-05T02:03:28;101023.03;;;10.54;93.38
41947;BME280;27638;42.184;24.848;2022-12-05T02:05:55;101016.19;;;10.52;93.46
41947;BME280;27638;42.184;24.848;2022-12-05T02:08:21;101016.06;;;10.53;93.06
41947;BME280;27638;42.184;24.848;2022-12-05T02:10:51;101020.25;;;10.56;93.32
41947;BME280;27638;42.184;24.848;2022-12-05T02:15:44;101017.63;;;10.56;93.01
41947;BME280;27638;42.184;24.848;2022-12-05T02:26:59;101012.84;;;10.50;94.20
41947;BME280;27638;42.184;24.848;2022-12-05T02:32:05;101012.38;;;10.45;94.47
41947;BME280;27638;42.184;24.848;2022-12-05T02:34:35;101004.91;;;10.18;95.31
41947;BME280;27638;42.184;24.848;2022-12-05T02:37:05;101005.13;;;10.26;95.12
41947;BME280;27638;42.184;24.848;2022-12-05T02:42:05;101014.38;;;10.32;94.84
41947;BME280;27638;42.184;24.848;2022-12-05T02:44:38;101010.63;;;10.34;94.83
41947;BME280;27638;42.184;24.848;2022-12-05T02:47:05;101021.66;;;10.39;93.92
41947;BME280;27638;42.184;24.848;2022-12-05T02:49:32;101000.97;;;10.44;93.68
41947;BME280;27638;42.184;24.848;2022-12-05T02:51:59;101005.78;;;10.39;93.68
41947;BME280;27638;42.184;24.848;2022-12-05T02:54:27;101005.47;;;10.33;93.83
41947;BME280;27638;42.184;24.848;2022-12-05T02:56:54;101002.41;;;10.37;93.92
41947;BME280;27638;42.184;24.848;2022-12-05T02:59:21;100992.78;;;10.36;94.27
41947;BME280;27638;42.184;24.848;2022-12-05T03:01:47;101002.28;;;10.39;93.30
41947;BME280;27638;42.184;24.848;2022-12-05T03:04:13;101000.25;;;10.42;94.41
41947;BME280;27638;42.184;24.848;2022-12-05T03:06:53;101001.44;;;10.38;93.90
41947;BME280;27638;42.184;24.848;2022-12-05T03:09:24;101000.28;;;10.31;95.02
41947;BME280;27638;42.184;24.848;2022-12-05T03:11:53;101007.38;;;10.31;95.54
41947;BME280;27638;42.184;24.848;2022-12-05T03:14:31;101010.50;;;10.36;95.14
41947;BME280;27638;42.184;24.848;2022-12-05T03:16:59;101013.00;;;10.37;94.82
41947;BME280;27638;42.184;24.848;2022-12-05T03:19:34;101019.63;;;10.43;94.48
41947;BME280;27638;42.184;24.848;2022-12-05T03:22:21;101017.56;;;10.46;93.71
41947;BME280;27638;42.184;24.848;2022-12-05T03:24:50;101023.16;;;10.53;93.30
41947;BME280;27638;42.184;24.848;2022-12-05T03:27:26;101021.50;;;10.52;94.23
41947;BME280;27638;42.184;24.848;2022-12-05T03:32:54;101019.63;;;10.43;94.30
41947;BME280;27638;42.184;24.848;2022-12-05T03:40:36;101020.34;;;10.45;94.38
41947;BME280;27638;42.184;24.848;2022-12-05T03:45:36;101016.59;;;10.47;94.12
41947;BME280;27638;42.184;24.848;2022-12-05T03:48:05;101013.34;;;10.44;94.41
41947;BME280;27638;42.184;24.848;2022-12-05T03:50:32;101015.53;;;10.39;94.83
41947;BME280;27638;42.184;24.848;2022-12-05T03:53:01;101017.19;;;10.40;94.62
41947;BME280;27638;42.184;24.848;2022-12-05T03:55:28;101014.47;;;10.41;94.57
41947;BME280;27638;42.184;24.848;2022-12-05T03:57:58;101014.91;;;10.46;94.49
41947;BME280;27638;42.184;24.848;2022-12-05T04:00:25;101013.81;;;10.49;95.21
41947;BME280;27638;42.184;24.848;2022-12-05T04:05:20;101016.72;;;10.46;95.76
41947;BME280;27638;42.184;24.848;2022-12-05T04:07:48;101022.84;;;10.46;94.95
41947;BME280;27638;42.184;24.848;2022-12-05T04:10:15;101015.88;;;10.45;95.79
41947;BME280;27638;42.184;24.848;2022-12-05T04:12:42;101022.84;;;10.46;95.37
41947;BME280;27638;42.184;24.848;2022-12-05T04:15:13;101010.31;;;10.48;95.17
41947;BME280;27638;42.184;24.848;2022-12-05T04:20:26;101009.88;;;10.43;94.98
41947;BME280;27638;42.184;24.848;2022-12-05T04:23:12;101011.47;;;10.35;95.71
41947;BME280;27638;42.184;24.848;2022-12-05T04:25:39;101003.78;;;10.32;96.22
41947;BME280;27638;42.184;24.848;2022-12-05T04:28:20;101003.78;;;10.32;96.04
41947;BME280;27638;42.184;24.848;2022-12-05T04:41:12;101009.47;;;10.27;95.99
41947;BME280;27638;42.184;24.848;2022-12-05T04:43:38;101011.13;;;10.28;96.52
41947;BME280;27638;42.184;24.848;2022-12-05T04:46:06;101014.25;;;10.33;95.40
41947;BME280;27638;42.184;24.848;2022-12-05T04:48:34;101014.09;;;10.35;94.70
41947;BME280;27638;42.184;24.848;2022-12-05T04:51:01;101028.06;;;10.37;94.92
41947;BME280;27638;42.184;24.848;2022-12-05T04:53:28;101013.97;;;10.36;94.96
41947;BME280;27638;42.184;24.848;2022-12-05T04:55:55;101010.13;;;10.40;94.32
41947;BME280;27638;42.184;24.848;2022-12-05T04:58:23;101014.91;;;10.46;93.92
41947;BME280;27638;42.184;24.848;2022-12-05T05:03:26;101016.75;;;10.35;94.62
41947;BME280;27638;42.184;24.848;2022-12-05T05:05:53;101019.09;;;10.17;94.64
41947;BME280;27638;42.184;24.848;2022-12-05T05:08:20;101020.19;;;10.14;95.60
41947;BME280;27638;42.184;24.848;2022-12-05T05:10:49;101020.56;;;10.21;95.83
41947;BME280;27638;42.184;24.848;2022-12-05T05:13:16;101020.88;;;10.28;95.10
41947;BME280;27638;42.184;24.848;2022-12-05T05:15:41;101021.03;;;10.26;95.46
41947;BME280;27638;42.184;24.848;2022-12-05T05:18:08;101018.63;;;10.23;96.13
41947;BME280;27638;42.184;24.848;2022-12-05T05:20:33;101015.72;;;10.26;95.67
41947;BME280;27638;42.184;24.848;2022-12-05T05:22:59;101013.34;;;10.23;96.06
41947;BME280;27638;42.184;24.848;2022-12-05T05:25:24;101017.91;;;10.21;96.38
41947;BME280;27638;42.184;24.848;2022-12-05T05:27:50;101019.22;;;10.27;95.42
41947;BME280;27638;42.184;24.848;2022-12-05T05:30:16;101020.50;;;10.32;95.46
41947;BME280;27638;42.184;24.848;2022-12-05T05:32:42;101023.41;;;10.29;95.68
41947;BME280;27638;42.184;24.848;2022-12-05T05:35:07;101014.38;;;10.32;95.89
41947;BME280;27638;42.184;24.848;2022-12-05T05:37:33;101013.66;;;10.30;94.69
41947;BME280;27638;42.184;24.848;2022-12-05T05:39:58;101016.97;;;10.11;96.65
41947;BME280;27638;42.184;24.848;2022-12-05T05:42:23;101013.78;;;9.96;96.97
41947;BME280;27638;42.184;24.848;2022-12-05T05:44:49;101013.50;;;9.78;97.98
41947;BME280;27638;42.184;24.848;2022-12-05T05:47:14;101015.44;;;9.76;98.59
41947;BME280;27638;42.184;24.848;2022-12-05T05:49:39;101026.91;;;9.66;99.34
41947;BME280;27638;42.184;24.848;2022-12-05T05:52:04;101028.09;;;9.73;99.92
41947;BME280;27638;42.184;24.848;2022-12-05T05:54:30;101022.69;;;9.95;98.92
41947;BME280;27638;42.184;24.848;2022-12-05T05:56:55;101029.16;;;10.02;97.70
41947;BME280;27638;42.184;24.848;2022-12-05T05:59:20;101032.53;;;10.04;97.62
41947;BME280;27638;42.184;24.848;2022-12-05T06:01:46;101029.34;;;10.21;96.33
41947;BME280;27638;42.184;24.848;2022-12-05T06:04:11;101023.69;;;10.15;96.79
41947;BME280;27638;42.184;24.848;2022-12-05T06:06:36;101024.84;;;10.01;97.38
41947;BME280;27638;42.184;24.848;2022-12-05T06:09:02;101028.06;;;10.05;97.01
41947;BME280;27638;42.184;24.848;2022-12-05T06:11:30;101033.91;;;10.19;96.77
41947;BME280;27638;42.184;24.848;2022-12-05T06:13:56;101033.38;;;10.05;96.02
41947;BME280;27638;42.184;24.848;2022-12-05T06:16:21;101034.13;;;9.96;96.81
41947;BME280;27638;42.184;24.848;2022-12-05T06:18:47;101035.56;;;10.00;97.82
41947;BME280;27638;42.184;24.848;2022-12-05T06:21:14;101042.00;;;10.07;97.13
41947;BME280;27638;42.184;24.848;2022-12-05T06:23:39;101046.81;;;10.13;96.08
41947;BME280;27638;42.184;24.848;2022-12-05T06:26:05;101044.03;;;10.14;95.62
41947;BME280;27638;42.184;24.848;2022-12-05T06:28:31;101050.75;;;10.18;95.28
41947;BME280;27638;42.184;24.848;2022-12-05T06:30:56;101049.28;;;10.26;95.16
41947;BME280;27638;42.184;24.848;2022-12-05T06:33:21;101054.06;;;10.32;94.50
41947;BME280;27638;42.184;24.848;2022-12-05T06:35:47;101058.63;;;10.41;94.40
41947;BME280;27638;42.184;24.848;2022-12-05T06:38:12;101064.84;;;10.51;93.44
41947;BME280;27638;42.184;24.848;2022-12-05T06:40:38;101073.34;;;10.54;93.50
41947;BME280;27638;42.184;24.848;2022-12-05T06:43:04;101069.63;;;10.57;93.04
41947;BME280;27638;42.184;24.848;2022-12-05T06:45:29;101070.31;;;10.59;93.05
41947;BME280;27638;42.184;24.848;2022-12-05T06:47:55;101075.75;;;10.58;92.38
41947;BME280;27638;42.184;24.848;2022-12-05T06:50:20;101080.28;;;10.46;92.94
41947;BME280;27638;42.184;24.848;2022-12-05T06:52:45;101075.84;;;10.35;92.79
41947;BME280;27638;42.184;24.848;2022-12-05T06:55:11;101085.66;;;10.23;93.55
41947;BME280;27638;42.184;24.848;2022-12-05T06:57:36;101087.28;;;10.36;94.19
41947;BME280;27638;42.184;24.848;2022-12-05T07:00:02;101083.78;;;10.35;93.65
41947;BME280;27638;42.184;24.848;2022-12-05T07:02:48;101087.69;;;10.52;94.03
41947;BME280;27638;42.184;24.848;2022-12-05T07:05:14;101091.25;;;10.62;93.01
41947;BME280;27638;42.184;24.848;2022-12-05T07:07:39;101089.31;;;10.64;93.20
41947;BME280;27638;42.184;24.848;2022-12-05T07:10:05;101100.63;;;10.66;93.30
41947;BME280;27638;42.184;24.848;2022-12-05T07:12:31;101092.72;;;10.76;93.37
41947;BME280;27638;42.184;24.848;2022-12-05T07:14:56;101099.59;;;10.78;91.75
41947;BME280;27638;42.184;24.848;2022-12-05T07:17:21;101095.69;;;10.82;91.78
41947;BME280;27638;42.184;24.848;2022-12-05T07:19:47;101100.59;;;10.87;91.08
41947;BME280;27638;42.184;24.848;2022-12-05T07:22:16;101097.97;;;10.87;90.35
41947;BME280;27638;42.184;24.848;2022-12-05T07:24:42;101093.22;;;10.91;90.89
41947;BME280;27638;42.184;24.848;2022-12-05T07:27:08;101101.31;;;10.89;90.40
41947;BME280;27638;42.184;24.848;2022-12-05T07:29:33;101095.66;;;11.03;89.69
41947;BME280;27638;42.184;24.848;2022-12-05T07:31:58;101098.84;;;10.97;89.28
41947;BME280;27638;42.184;24.848;2022-12-05T07:34:24;101104.53;;;10.93;90.84
41947;BME280;27638;42.184;24.848;2022-12-05T07:36:50;101094.50;;;10.96;90.29
41947;BME280;27638;42.184;24.848;2022-12-05T07:39:15;101102.47;;;10.96;88.90
41947;BME280;27638;42.184;24.848;2022-12-05T07:41:41;101105.34;;;11.14;89.16
41947;BME280;27638;42.184;24.848;2022-12-05T07:44:06;101100.56;;;11.08;90.06
41947;BME280;27638;42.184;24.848;2022-12-05T07:46:32;101097.22;;;11.06;89.90
41947;BME280;27638;42.184;24.848;2022-12-05T07:48:58;101092.66;;;10.87;91.07
41947;BME280;27638;42.184;24.848;2022-12-05T07:51:23;101098.13;;;10.95;90.22
41947;BME280;27638;42.184;24.848;2022-12-05T07:53:49;101093.59;;;11.07;88.66
41947;BME280;27638;42.184;24.848;2022-12-05T07:56:15;101092.03;;;11.04;88.78
41947;BME280;27638;42.184;24.848;2022-12-05T07:58:44;101096.81;;;11.10;88.88
41947;BME280;27638;42.184;24.848;2022-12-05T08:01:20;101099.78;;;11.17;88.32
41947;BME280;27638;42.184;24.848;2022-12-05T08:03:46;101097.16;;;10.96;88.55
41947;BME280;27638;42.184;24.848;2022-12-05T08:06:15;101096.47;;;10.94;89.12
41947;BME280;27638;42.184;24.848;2022-12-05T08:08:41;101098.81;;;11.18;87.54
41947;BME280;27638;42.184;24.848;2022-12-05T08:11:13;101094.47;;;11.17;87.59
41947;BME280;27638;42.184;24.848;2022-12-05T08:13:39;101098.91;;;11.07;88.86
41947;BME280;27638;42.184;24.848;2022-12-05T08:16:14;101101.00;;;11.13;89.03
41947;BME280;27638;42.184;24.848;2022-12-05T08:18:40;101108.41;;;11.09;90.13
41947;BME280;27638;42.184;24.848;2022-12-05T08:21:10;101111.88;;;11.10;89.46
41947;BME280;27638;42.184;24.848;2022-12-05T08:23:36;101109.41;;;11.18;89.46
41947;BME280;27638;42.184;24.848;2022-12-05T08:26:06;101101.84;;;11.13;89.34
41947;BME280;27638;42.184;24.848;2022-12-05T08:28:32;101102.88;;;11.22;87.93
41947;BME280;27638;42.184;24.848;2022-12-05T08:31:08;101100.66;;;11.27;87.62
41947;BME280;27638;42.184;24.848;2022-12-05T08:33:34;101101.63;;;11.26;87.62
41947;BME280;27638;42.184;24.848;2022-12-05T08:36:00;101100.53;;;11.29;86.95
41947;BME280;27638;42.184;24.848;2022-12-05T08:38:26;101092.16;;;11.33;87.38
41947;BME280;27638;42.184;24.848;2022-12-05T08:40:51;101088.84;;;11.41;86.91
41947;BME280;27638;42.184;24.848;2022-12-05T08:43:17;101080.69;;;11.54;86.62
41947;BME280;27638;42.184;24.848;2022-12-05T08:45:48;101090.94;;;11.37;86.92
41947;BME280;27638;42.184;24.848;2022-12-05T08:48:13;101092.47;;;11.40;86.58
41947;BME280;27638;42.184;24.848;2022-12-05T08:50:38;101092.41;;;11.51;86.11
41947;BME280;27638;42.184;24.848;2022-12-05T08:53:04;101088.50;;;11.25;86.60
41947;BME280;27638;42.184;24.848;2022-12-05T08:55:29;101079.03;;;11.32;86.61
41947;BME280;27638;42.184;24.848;2022-12-05T08:57:54;101077.41;;;11.40;86.48
41947;BME280;27638;42.184;24.848;2022-12-05T09:00:20;101070.88;;;11.44;85.59
41947;BME280;27638;42.184;24.848;2022-12-05T09:02:48;101070.50;;;11.59;84.77
41947;BME280;27638;42.184;24.848;2022-12-05T09:05:14;101069.50;;;11.50;85.73
41947;BME280;27638;42.184;24.848;2022-12-05T09:07:40;101061.00;;;11.56;85.69
41947;BME280;27638;42.184;24.848;2022-12-05T09:10:06;101069.53;;;11.60;85.50
41947;BME280;27638;42.184;24.848;2022-12-05T09:12:32;101065.88;;;11.51;84.46
41947;BME280;27638;42.184;24.848;2022-12-05T09:14:59;101060.56;;;11.51;84.71
41947;BME280;27638;42.184;24.848;2022-12-05T09:17:24;101055.81;;;11.45;85.72
41947;BME280;27638;42.184;24.848;2022-12-05T09:19:50;101048.78;;;11.44;85.17
41947;BME280;27638;42.184;24.848;2022-12-05T09:22:16;101048.41;;;11.48;83.77
41947;BME280;27638;42.184;24.848;2022-12-05T09:24:41;101051.06;;;11.08;84.42
41947;BME280;27638;42.184;24.848;2022-12-05T09:27:07;101048.41;;;11.08;85.06
41947;BME280;27638;42.184;24.848;2022-12-05T09:29:32;101050.22;;;11.08;84.83
41947;BME280;27638;42.184;24.848;2022-12-05T09:31:57;101045.78;;;11.18;84.42
41947;BME280;27638;42.184;24.848;2022-12-05T09:34:23;101048.69;;;11.15;85.71
41947;BME280;27638;42.184;24.848;2022-12-05T09:36:50;101035.31;;;11.16;85.12
41947;BME280;27638;42.184;24.848;2022-12-05T09:39:16;101026.31;;;10.98;85.79
41947;BME280;27638;42.184;24.848;2022-12-05T09:49:38;101005.19;;;11.27;84.81
41947;BME280;27638;42.184;24.848;2022-12-05T09:52:07;101015.03;;;11.46;84.56
41947;BME280;27638;42.184;24.848;2022-12-05T09:54:35;101004.69;;;11.43;83.66
41947;BME280;27638;42.184;24.848;2022-12-05T09:57:01;101004.44;;;11.56;83.09
41947;BME280;27638;42.184;24.848;2022-12-05T09:59:27;101009.00;;;11.44;84.23
41947;BME280;27638;42.184;24.848;2022-12-05T10:04:57;100988.75;;;11.43;84.77
41947;BME280;27638;42.184;24.848;2022-12-05T10:09:58;100994.16;;;11.22;84.41
41947;BME280;27638;42.184;24.848;2022-12-05T10:15:03;100997.44;;;10.95;85.66
41947;BME280;27638;42.184;24.848;2022-12-05T10:17:36;100983.97;;;11.17;85.26
41947;BME280;27638;42.184;24.848;2022-12-05T10:20:25;100992.09;;;11.26;85.11
41947;BME280;27638;42.184;24.848;2022-12-05T10:22:58;100993.34;;;11.31;84.10
41947;BME280;27638;42.184;24.848;2022-12-05T10:25:25;101001.31;;;11.41;84.19
41947;BME280;27638;42.184;24.848;2022-12-05T10:27:51;100999.13;;;11.46;84.46
41947;BME280;27638;42.184;24.848;2022-12-05T10:30:19;100990.50;;;11.73;83.52
41947;BME280;27638;42.184;24.848;2022-12-05T10:32:55;100983.25;;;11.65;83.31
41947;BME280;27638;42.184;24.848;2022-12-05T10:37:53;100991.03;;;10.98;85.61
41947;BME280;27638;42.184;24.848;2022-12-05T10:40:19;100982.44;;;11.15;85.07
41947;BME280;27638;42.184;24.848;2022-12-05T10:42:45;100971.06;;;10.94;82.98
41947;BME280;27638;42.184;24.848;2022-12-05T10:45:21;100970.41;;;11.11;84.07
41947;BME280;27638;42.184;24.848;2022-12-05T10:47:47;100968.59;;;11.11;83.81
41947;BME280;27638;42.184;24.848;2022-12-05T10:50:23;100973.53;;;11.26;83.64
41947;BME280;27638;42.184;24.848;2022-12-05T10:52:50;100964.31;;;11.20;83.90
41947;BME280;27638;42.184;24.848;2022-12-05T10:55:16;100964.00;;;11.13;81.18
41947;BME280;27638;42.184;24.848;2022-12-05T10:57:41;100960.41;;;11.24;80.93
41947;BME280;27638;42.184;24.848;2022-12-05T11:00:11;100960.97;;;11.37;81.83
41947;BME280;27638;42.184;24.848;2022-12-05T11:02:37;100949.94;;;11.32;82.86
41947;BME280;27638;42.184;24.848;2022-12-05T11:05:04;100951.94;;;11.49;79.29
41947;BME280;27638;42.184;24.848;2022-12-05T11:07:31;100948.47;;;11.68;76.96
41947;BME280;27638;42.184;24.848;2022-12-05T11:09:58;100942.13;;;11.40;75.91
41947;BME280;27638;42.184;24.848;2022-12-05T11:15:00;100930.47;;;11.62;75.02
41947;BME280;27638;42.184;24.848;2022-12-05T11:17:29;100933.38;;;11.59;74.20
41947;BME280;27638;42.184;24.848;2022-12-05T11:19:55;100935.91;;;11.51;74.04
41947;BME280;27638;42.184;24.848;2022-12-05T11:22:20;100935.66;;;11.83;74.06
41947;BME280;27638;42.184;24.848;2022-12-05T11:24:53;100922.34;;;11.73;74.77
41947;BME280;27638;42.184;24.848;2022-12-05T11:27:29;100916.63;;;11.68;75.17
41947;BME280;27638;42.184;24.848;2022-12-05T11:30:04;100919.41;;;11.76;73.09
41947;BME280;27638;42.184;24.848;2022-12-05T11:32:39;100913.44;;;11.55;75.86
41947;BME280;27638;42.184;24.848;2022-12-05T11:38:11;100913.84;;;11.50;75.68
41947;BME280;27638;42.184;24.848;2022-12-05T11:45:20;100913.56;;;11.73;74.96
41947;BME280;27638;42.184;24.848;2022-12-05T11:50:41;100907.97;;;11.47;76.93
41947;BME280;27638;42.184;24.848;2022-12-05T11:55:52;100911.31;;;11.68;78.28
41947;BME280;27638;42.184;24.848;2022-12-05T12:08:26;100900.72;;;11.59;78.92
41947;BME280;27638;42.184;24.848;2022-12-05T12:23:11;100887.03;;;11.73;78.46
41947;BME280;27638;42.184;24.848;2022-12-05T12:25:43;100884.66;;;11.60;77.91
41947;BME280;27638;42.184;24.848;2022-12-05T12:50:54;100880.81;;;12.48;73.74
41947;BME280;27638;42.184;24.848;2022-12-05T12:53:45;100869.94;;;12.41;74.35
41947;BME280;27638;42.184;24.848;2022-12-05T12:56:13;100867.19;;;12.33;75.64
41947;BME280;27638;42.184;24.848;2022-12-05T13:09:13;100867.13;;;12.53;74.35
41947;BME280;27638;42.184;24.848;2022-12-05T13:11:40;100865.88;;;12.47;74.06
41947;BME280;27638;42.184;24.848;2022-12-05T13:14:08;100867.00;;;12.54;72.76
41947;BME280;27638;42.184;24.848;2022-12-05T13:16:46;100865.41;;;12.61;72.74
41947;BME280;27638;42.184;24.848;2022-12-05T13:21:48;100860.16;;;12.42;73.65
41947;BME280;27638;42.184;24.848;2022-12-05T13:24:14;100864.03;;;12.20;74.07
41947;BME280;27638;42.184;24.848;2022-12-05T13:26:47;100866.94;;;12.27;73.92
41947;BME280;27638;42.184;24.848;2022-12-05T13:29:47;100858.81;;;12.28;74.56
41947;BME280;27638;42.184;24.848;2022-12-05T13:32:05;100859.13;;;12.25;74.22
41947;BME280;27638;42.184;24.848;2022-12-05T13:34:45;100858.28;;;12.25;74.38
41947;BME280;27638;42.184;24.848;2022-12-05T13:37:19;100853.28;;;12.12;75.62
41947;BME280;27638;42.184;24.848;2022-12-05T13:40:04;100851.56;;;11.83;75.55
41947;BME280;27638;42.184;24.848;2022-12-05T13:42:54;100857.56;;;11.86;76.25
41947;BME280;27638;42.184;24.848;2022-12-05T13:45:23;100851.75;;;12.09;74.92
41947;BME280;27638;42.184;24.848;2022-12-05T13:50:50;100848.41;;;12.07;74.48
41947;BME280;27638;42.184;24.848;2022-12-05T14:06:11;100850.56;;;12.31;73.73
41947;BME280;27638;42.184;24.848;2022-12-05T14:08:57;100840.59;;;12.43;73.58
41947;BME280;27638;42.184;24.848;2022-12-05T14:11:22;100849.13;;;12.37;74.33
41947;BME280;27638;42.184;24.848;2022-12-05T14:13:47;100843.13;;;12.35;73.90
41947;BME280;27638;42.184;24.848;2022-12-05T14:18:49;100838.38;;;12.38;73.99
41947;BME280;27638;42.184;24.848;2022-12-05T14:21:23;100847.88;;;12.41;73.80
41947;BME280;27638;42.184;24.848;2022-12-05T14:29:09;100853.75;;;12.35;73.97
41947;BME280;27638;42.184;24.848;2022-12-05T14:31:44;100846.94;;;12.32;74.72
41947;BME280;27638;42.184;24.848;2022-12-05T14:36:37;100845.09;;;12.33;74.94
41947;BME280;27638;42.184;24.848;2022-12-05T14:41:54;100863.13;;;12.39;74.86
41947;BME280;27638;42.184;24.848;2022-12-05T14:44:20;100858.63;;;12.39;74.95
41947;BME280;27638;42.184;24.848;2022-12-05T14:46:45;100860.31;;;12.40;76.03
41947;BME280;27638;42.184;24.848;2022-12-05T14:51:56;100869.41;;;12.38;75.13
41947;BME280;27638;42.184;24.848;2022-12-05T14:54:21;100858.78;;;12.38;75.81
41947;BME280;27638;42.184;24.848;2022-12-05T14:56:48;100854.59;;;12.35;75.62
41947;BME280;27638;42.184;24.848;2022-12-05T15:01:48;100860.47;;;12.39;76.42
41947;BME280;27638;42.184;24.848;2022-12-05T15:04:29;100865.56;;;12.23;76.84
41947;BME280;27638;42.184;24.848;2022-12-05T15:07:01;100866.44;;;12.04;77.37
41947;BME280;27638;42.184;24.848;2022-12-05T15:11:59;100860.81;;;12.17;77.38
41947;BME280;27638;42.184;24.848;2022-12-05T15:14:25;100870.50;;;12.08;77.71
41947;BME280;27638;42.184;24.848;2022-12-05T15:16:52;100864.50;;;12.06;78.03
41947;BME280;27638;42.184;24.848;2022-12-05T15:19:22;100861.84;;;12.06;77.80
41947;BME280;27638;42.184;24.848;2022-12-05T15:21:53;100858.19;;;12.07;78.53
41947;BME280;27638;42.184;24.848;2022-12-05T15:24:20;100861.53;;;12.09;78.57
41947;BME280;27638;42.184;24.848;2022-12-05T15:26:46;100862.38;;;12.09;78.50
41947;BME280;27638;42.184;24.848;2022-12-05T15:34:20;100858.91;;;12.09;78.31
41947;BME280;27638;42.184;24.848;2022-12-05T15:36:55;100856.94;;;12.11;78.31
41947;BME280;27638;42.184;24.848;2022-12-05T15:39:22;100869.38;;;12.10;78.72
41947;BME280;27638;42.184;24.848;2022-12-05T15:41:50;100857.22;;;12.08;80.10
41947;BME280;27638;42.184;24.848;2022-12-05T15:44:16;100858.50;;;12.04;81.26